Terminal Aerodrome Forecast
Issued by NWS

Home | Current Version | Previous Version | Text Only | Print | Product List | Glossary On
Versions: 1 2 3 4 5 6 7 8 9 10 11 12 13 14 15 16 17 18 19 20 21 22 23
000
FTUS41 KRNK 282335 AAD
TAFBCB
TAF AMD
KBCB 282335Z 2900/2924 29004KT P6SM BKN070
     FM290600 32005KT 1SM BR SCT025
     FM291300 VRB03KT P6SM SCT025
     FM291600 05003KT P6SM SCT040
     FM292100 09003KT P6SM SCT050=

USA.gov is the U.S. government's official web portal to all federal, state and local government web resources and services.